Time;durP1;ratioP1;P1;durP2;ratioP2;P2;SDS_P1;SDS_P2;PMS_P1;PMS_P2;Temp;Humidity;BMP_temperature;BMP_pressure;BME280_temperature;BME280_humidity;BME280_pressure;Samples;Min_cycle;Max_cycle;Signal;HPM_P1;HPM_P2
2023/05/07 00:00:46;;;;;;;23.15;13.05;;;;;;;-144.73;100.00;54413.84;5015088;28;20032;-70
2023/05/07 00:03:13;;;;;;;21.33;13.82;;;;;;;-144.73;100.00;54454.91;5033448;28;20017;-71
2023/05/07 00:05:39;;;;;;;19.10;12.85;;;;;;;-144.73;100.00;54442.59;5008906;28;20108;-71
2023/05/07 00:08:04;;;;;;;20.33;13.38;;;;;;;-144.73;100.00;54432.31;5028108;28;20112;-70
2023/05/07 00:10:30;;;;;;;21.02;12.82;;;;;;;-144.73;100.00;54452.84;5015435;28;20471;-71
2023/05/07 00:12:55;;;;;;;19.20;12.55;;;;;;;-144.73;100.00;54465.16;5030484;28;20099;-70
2023/05/07 00:15:20;;;;;;;18.83;12.93;;;;;;;-144.73;100.00;54428.22;5013016;28;20025;-70
2023/05/07 00:17:46;;;;;;;20.83;13.70;;;;;;;-144.73;100.00;54442.59;5011720;28;20038;-71
2023/05/07 00:20:11;;;;;;;20.40;13.48;;;;;;;-144.73;100.00;54444.66;5033165;28;20056;-70
2023/05/07 00:22:37;;;;;;;19.67;14.13;;;;;;;-144.73;100.00;54469.28;5021126;28;20029;-71
2023/05/07 00:25:03;;;;;;;26.35;14.57;;;;;;;-144.73;100.00;54491.84;5002700;28;20034;-71
2023/05/07 00:27:28;;;;;;;23.58;16.10;;;;;;;-144.73;100.00;54508.28;5015264;28;20113;-70
2023/05/07 00:29:54;;;;;;;22.58;13.85;;;;;;;-144.73;100.00;54456.97;5015283;28;20425;-71
2023/05/07 00:32:19;;;;;;;23.70;14.20;;;;;;;-144.73;100.00;54440.53;5031971;28;20060;-71
2023/05/07 00:34:44;;;;;;;23.58;13.75;;;;;;;-144.73;100.00;54432.31;5024638;28;20061;-71
2023/05/07 00:37:11;;;;;;;21.17;13.98;;;;;;;-144.73;100.00;54420.00;5024620;28;20033;-70
2023/05/07 00:39:37;;;;;;;19.88;14.07;;;;;;;-144.73;100.00;54407.69;5014143;28;20048;-70
2023/05/07 00:42:02;;;;;;;23.02;14.70;;;;;;;-144.73;100.00;54444.66;5009355;28;20093;-71
2023/05/07 00:44:29;;;;;;;29.55;14.50;;;;;;;-144.73;100.00;54411.81;5029244;28;20022;-71
2023/05/07 00:46:56;;;;;;;21.08;14.88;;;;;;;-144.73;100.00;54424.13;5003251;28;20045;-71
2023/05/07 00:49:25;;;;;;;26.23;15.52;;;;;;;-144.73;100.00;54448.75;5010717;28;20021;-70
2023/05/07 00:51:51;;;;;;;23.90;15.18;;;;;;;-144.73;100.00;54415.91;5011401;28;20058;-70
2023/05/07 00:54:16;;;;;;;22.40;14.98;;;;;;;-144.73;100.00;54432.31;5015164;28;20080;-70
2023/05/07 00:56:41;;;;;;;25.25;16.25;;;;;;;-144.73;100.00;54448.75;5002762;28;20643;-70
2023/05/07 00:59:07;;;;;;;21.52;14.98;;;;;;;-144.73;100.00;54452.84;5014604;28;20067;-70
2023/05/07 01:01:33;;;;;;;23.55;15.52;;;;;;;-144.73;100.00;54444.66;5006009;28;20038;-71
2023/05/07 01:03:58;;;;;;;24.92;16.33;;;;;;;-144.73;100.00;54444.66;5012933;28;20032;-71
2023/05/07 01:06:27;;;;;;;24.80;14.77;;;;;;;-144.73;100.00;54432.31;5002795;28;20025;-70
2023/05/07 01:08:56;;;;;;;22.90;15.20;;;;;;;-144.73;100.00;54461.06;5024783;28;20076;-70
2023/05/07 01:11:22;;;;;;;23.50;14.65;;;;;;;-144.73;100.00;54399.50;5031044;28;20043;-70
2023/05/07 01:13:50;;;;;;;23.67;14.77;;;;;;;-144.73;100.00;54420.00;5007123;28;20388;-70
2023/05/07 01:16:15;;;;;;;17.48;12.80;;;;;;;-144.73;100.00;54407.69;5014272;28;20029;-71
2023/05/07 01:18:41;;;;;;;18.42;13.07;;;;;;;-144.73;100.00;54428.22;5024151;28;20087;-70
2023/05/07 01:21:08;;;;;;;16.30;12.27;;;;;;;-144.73;100.00;54450.81;5010596;28;20034;-70
2023/05/07 01:23:35;;;;;;;19.75;13.43;;;;;;;-144.73;100.00;54444.66;5006758;28;20026;-70
2023/05/07 01:26:00;;;;;;;20.13;12.80;;;;;;;-144.73;100.00;54448.75;5011030;28;20025;-70
2023/05/07 01:28:26;;;;;;;20.48;12.95;;;;;;;-144.73;100.00;54461.06;5005269;28;20052;-70
2023/05/07 01:30:55;;;;;;;20.00;13.90;;;;;;;-144.73;100.00;54387.19;5013400;28;20033;-70
2023/05/07 01:33:21;;;;;;;20.50;13.57;;;;;;;-144.73;100.00;54444.66;5009634;28;20036;-70
2023/05/07 01:35:50;;;;;;;22.83;12.63;;;;;;;-144.73;100.00;54504.16;5010118;28;20080;-70
2023/05/07 01:38:17;;;;;;;19.20;12.80;;;;;;;-144.73;100.00;54420.00;5007773;28;20017;-70
2023/05/07 01:40:43;;;;;;;22.58;12.77;;;;;;;-144.73;100.00;54461.06;5024570;28;20026;-70
2023/05/07 01:43:09;;;;;;;17.92;12.85;;;;;;;-144.73;100.00;54432.31;5016304;28;20033;-70
2023/05/07 01:45:35;;;;;;;19.10;12.52;;;;;;;-144.73;100.00;54432.31;5013178;28;20033;-70
2023/05/07 01:48:01;;;;;;;23.73;12.32;;;;;;;-144.73;100.00;54454.91;5009788;28;20030;-70
2023/05/07 01:50:27;;;;;;;23.85;12.30;;;;;;;-144.73;100.00;54424.13;5008334;28;20083;-70
2023/05/07 01:52:53;;;;;;;25.77;13.65;;;;;;;-144.73;100.00;54452.84;5024328;28;20178;-70
2023/05/07 01:55:19;;;;;;;19.20;13.25;;;;;;;-144.73;100.00;54415.91;5027638;28;20516;-71
2023/05/07 01:57:44;;;;;;;21.40;14.13;;;;;;;-144.73;100.00;54479.53;5013312;28;20037;-72
2023/05/07 02:00:10;;;;;;;17.83;12.23;;;;;;;-144.73;100.00;54442.59;5015295;28;20103;-71
2023/05/07 02:02:35;;;;;;;23.13;12.88;;;;;;;-144.73;100.00;54469.28;4998434;28;20080;-71
2023/05/07 02:05:01;;;;;;;23.20;12.68;;;;;;;-144.73;100.00;54426.16;5013299;28;20033;-71
2023/05/07 02:07:27;;;;;;;20.17;12.85;;;;;;;-144.73;100.00;54448.75;5006430;28;20095;-72
2023/05/07 02:09:55;;;;;;;20.95;12.07;;;;;;;-144.73;100.00;54452.84;5005513;28;20033;-71
2023/05/07 02:12:20;;;;;;;18.80;12.13;;;;;;;-144.73;100.00;54444.66;5013058;28;20042;-71
2023/05/07 02:14:46;;;;;;;20.52;11.60;;;;;;;-144.73;100.00;54420.00;5012960;28;20079;-69
2023/05/07 02:17:11;;;;;;;16.42;11.63;;;;;;;-144.73;100.00;54450.81;5009777;28;20033;-68
2023/05/07 02:19:36;;;;;;;17.45;11.27;;;;;;;-144.73;100.00;54469.28;5009345;28;20025;-71
2023/05/07 02:22:02;;;;;;;20.00;11.93;;;;;;;-144.73;100.00;54440.53;5023255;28;20025;-71
2023/05/07 02:24:27;;;;;;;18.67;10.55;;;;;;;-144.73;100.00;54444.66;4998602;28;20033;-71
2023/05/07 02:26:52;;;;;;;20.00;11.70;;;;;;;-144.73;100.00;54440.53;5009239;28;20067;-71
2023/05/07 02:29:18;;;;;;;16.73;11.68;;;;;;;-144.73;100.00;54459.00;5013293;28;20044;-69
2023/05/07 02:31:43;;;;;;;17.05;12.00;;;;;;;-144.73;100.00;54506.22;5008134;28;20038;-69
2023/05/07 02:34:08;;;;;;;15.27;10.55;;;;;;;-144.73;100.00;54436.44;5005668;28;20057;-69
2023/05/07 02:36:33;;;;;;;24.48;11.18;;;;;;;-144.73;100.00;54461.06;5007208;28;20456;-70
2023/05/07 02:38:59;;;;;;;17.33;11.88;;;;;;;-144.73;100.00;54461.06;5022321;28;20584;-69
2023/05/07 02:41:24;;;;;;;21.08;13.20;;;;;;;-144.73;100.00;54452.84;5028436;28;20542;-70
2023/05/07 02:43:50;;;;;;;20.30;13.15;;;;;;;-144.73;100.00;54436.44;5011599;28;20042;-70
2023/05/07 02:46:15;;;;;;;23.08;13.15;;;;;;;-144.73;100.00;54483.66;5009093;28;20033;-70
2023/05/07 02:48:41;;;;;;;21.52;12.70;;;;;;;-144.73;100.00;54491.84;5029523;28;20044;-69
2023/05/07 02:51:06;;;;;;;23.80;13.38;;;;;;;-144.73;100.00;54461.06;5002473;28;20026;-69
2023/05/07 02:53:31;;;;;;;18.23;12.70;;;;;;;-144.73;100.00;54465.16;5024497;28;20033;-69
2023/05/07 02:55:58;;;;;;;21.52;12.80;;;;;;;-144.73;100.00;54452.84;5000917;28;20028;-69
2023/05/07 02:58:23;;;;;;;22.02;13.52;;;;;;;-144.73;100.00;54456.97;5009307;28;20463;-70
2023/05/07 03:00:49;;;;;;;21.30;13.00;;;;;;;-144.73;100.00;54461.06;5008791;28;20068;-69
2023/05/07 03:03:14;;;;;;;19.48;12.75;;;;;;;-144.73;100.00;54456.97;5025337;28;20010;-70
2023/05/07 03:05:40;;;;;;;21.30;14.18;;;;;;;-144.73;100.00;54461.06;5034651;28;20021;-70
2023/05/07 03:08:06;;;;;;;19.58;13.38;;;;;;;-144.73;100.00;54395.38;5011438;28;20029;-69
2023/05/07 03:10:31;;;;;;;22.85;13.07;;;;;;;-144.73;100.00;54452.84;5030130;28;20022;-69
2023/05/07 03:12:56;;;;;;;22.95;14.18;;;;;;;-144.73;100.00;54469.28;5011513;28;20048;-69
2023/05/07 03:15:22;;;;;;;26.33;14.50;;;;;;;-144.73;100.00;54473.38;5004014;28;20022;-69
2023/05/07 03:17:48;;;;;;;24.40;14.00;;;;;;;-144.73;100.00;54428.22;5028884;28;20056;-69
2023/05/07 03:20:13;;;;;;;26.88;14.50;;;;;;;-144.73;100.00;54465.16;5008550;28;20022;-69
2023/05/07 03:22:39;;;;;;;23.27;14.18;;;;;;;-144.73;100.00;54448.75;5021217;28;20084;-69
2023/05/07 03:25:05;;;;;;;20.95;14.25;;;;;;;-144.73;100.00;54461.06;5008608;28;20057;-69
2023/05/07 03:27:30;;;;;;;20.65;13.07;;;;;;;-144.73;100.00;54473.38;5009222;28;20026;-69
2023/05/07 03:29:56;;;;;;;19.38;13.38;;;;;;;-144.73;100.00;54446.69;5013312;28;20044;-69
2023/05/07 03:32:21;;;;;;;20.83;13.10;;;;;;;-144.73;100.00;54456.97;5030043;28;20086;-69
2023/05/07 03:34:46;;;;;;;21.45;13.30;;;;;;;-144.73;100.00;54452.84;5010069;28;20384;-69
2023/05/07 03:37:12;;;;;;;18.70;13.18;;;;;;;-144.73;100.00;54424.13;5021614;28;20026;-70
2023/05/07 03:39:37;;;;;;;22.35;12.68;;;;;;;-144.73;100.00;54444.66;5017819;28;20029;-69
2023/05/07 03:42:03;;;;;;;23.25;12.98;;;;;;;-144.73;100.00;54473.38;5012588;28;20038;-73
2023/05/07 03:44:28;;;;;;;22.85;12.43;;;;;;;-144.73;100.00;54444.66;5012951;28;20025;-69
2023/05/07 03:46:54;;;;;;;17.67;12.57;;;;;;;-144.73;100.00;54465.16;5006901;28;20044;-70
2023/05/07 03:49:19;;;;;;;20.23;13.15;;;;;;;-144.73;100.00;54452.84;5011929;28;20032;-70
2023/05/07 03:51:45;;;;;;;18.00;12.35;;;;;;;-144.73;100.00;54485.69;5006024;28;20132;-69
2023/05/07 03:54:10;;;;;;;18.98;11.98;;;;;;;-144.73;100.00;54473.38;4996895;28;20022;-69
2023/05/07 03:56:35;;;;;;;16.60;11.98;;;;;;;-144.73;100.00;54489.81;5031600;28;20025;-70
2023/05/07 03:59:01;;;;;;;18.40;13.25;;;;;;;-144.73;100.00;54438.50;5009457;28;20048;-70
2023/05/07 04:01:27;;;;;;;18.23;11.80;;;;;;;-144.73;100.00;54448.75;5008410;28;20041;-70
2023/05/07 04:03:52;;;;;;;17.95;12.55;;;;;;;-144.73;100.00;54411.81;5028097;28;20030;-70
2023/05/07 04:06:17;;;;;;;23.25;12.88;;;;;;;-144.73;100.00;54456.97;5018608;28;20062;-72
2023/05/07 04:08:43;;;;;;;18.63;12.32;;;;;;;-144.73;100.00;54428.22;5004217;28;20095;-69
2023/05/07 04:11:08;;;;;;;17.88;12.45;;;;;;;-144.73;100.00;54448.75;5007664;28;20037;-69
2023/05/07 04:13:34;;;;;;;21.30;11.80;;;;;;;-144.73;100.00;54463.13;5011515;28;20024;-70
2023/05/07 04:16:02;;;;;;;18.45;12.00;;;;;;;-144.73;100.00;54456.97;5011717;28;20033;-69
2023/05/07 04:18:28;;;;;;;16.58;11.57;;;;;;;-144.73;100.00;54444.66;5013036;28;20025;-70
2023/05/07 04:20:53;;;;;;;19.33;10.82;;;;;;;-144.73;100.00;54481.59;5014590;28;20087;-69
2023/05/07 04:23:18;;;;;;;18.52;11.75;;;;;;;-144.73;100.00;54477.47;5019290;28;20044;-70
2023/05/07 04:25:45;;;;;;;17.90;11.15;;;;;;;-144.73;100.00;54463.13;5025512;28;20033;-70
2023/05/07 04:28:10;;;;;;;17.80;11.05;;;;;;;-144.73;100.00;54446.69;5044631;28;20069;-70
2023/05/07 04:30:36;;;;;;;18.13;11.25;;;;;;;-144.73;100.00;54461.06;5033100;28;20049;-70
2023/05/07 04:33:01;;;;;;;20.23;12.07;;;;;;;-144.73;100.00;54456.97;5010340;28;20083;-69
2023/05/07 04:35:27;;;;;;;18.98;11.32;;;;;;;-144.73;100.00;54436.44;5037064;28;20018;-70
2023/05/07 04:37:52;;;;;;;16.17;10.27;;;;;;;-144.73;100.00;54461.06;5023240;28;20040;-70
2023/05/07 04:40:18;;;;;;;19.42;11.60;;;;;;;-144.73;100.00;54452.84;5014128;28;20017;-70
2023/05/07 04:42:43;;;;;;;15.50;10.27;;;;;;;-144.73;100.00;54481.59;5014266;28;20040;-70
2023/05/07 04:45:10;;;;;;;15.98;10.45;;;;;;;-144.73;100.00;54461.06;5028303;28;20022;-69
2023/05/07 04:47:35;;;;;;;18.00;11.32;;;;;;;-144.73;100.00;54463.13;5025309;28;20026;-70
2023/05/07 04:50:01;;;;;;;18.10;12.40;;;;;;;-144.73;100.00;54479.53;5027490;28;20026;-69
2023/05/07 04:52:26;;;;;;;22.02;11.90;;;;;;;-144.73;100.00;54456.97;5013045;28;20029;-68
2023/05/07 04:54:52;;;;;;;20.08;12.20;;;;;;;-144.73;100.00;54461.06;5012093;28;20175;-69
2023/05/07 04:57:17;;;;;;;20.73;13.10;;;;;;;-144.73;100.00;54461.06;5010082;28;20041;-70
2023/05/07 04:59:43;;;;;;;18.08;11.32;;;;;;;-144.73;100.00;54485.69;5020459;28;20510;-70
2023/05/07 05:02:10;;;;;;;18.75;12.23;;;;;;;-144.73;100.00;54473.38;5006999;28;20452;-70
2023/05/07 05:04:36;;;;;;;18.63;12.10;;;;;;;-144.73;100.00;54481.59;5003937;28;20038;-69
2023/05/07 05:07:03;;;;;;;19.05;11.50;;;;;;;-144.73;100.00;54456.97;5006299;28;20039;-70
2023/05/07 05:09:28;;;;;;;20.15;12.15;;;;;;;-144.73;100.00;54459.00;5006972;28;20096;-70
2023/05/07 05:11:54;;;;;;;16.55;10.88;;;;;;;-144.73;100.00;54452.84;5029533;28;20133;-70
2023/05/07 05:14:19;;;;;;;17.83;11.63;;;;;;;-144.73;100.00;54426.16;5010255;28;20029;-69
2023/05/07 05:16:44;;;;;;;17.88;11.55;;;;;;;-144.73;100.00;54465.16;5028303;28;20030;-70
2023/05/07 05:19:10;;;;;;;23.25;11.30;;;;;;;-144.73;100.00;54432.31;5006550;28;20013;-70
2023/05/07 05:21:35;;;;;;;18.27;11.40;;;;;;;-144.73;100.00;54473.38;5013897;28;20492;-69
2023/05/07 05:24:01;;;;;;;16.45;11.07;;;;;;;-144.73;100.00;54452.84;5012070;28;20072;-70
2023/05/07 05:26:26;;;;;;;18.10;10.23;;;;;;;-144.73;100.00;54434.38;5002405;28;20033;-70
2023/05/07 05:28:51;;;;;;;17.48;10.27;;;;;;;-144.73;100.00;54465.16;5024852;28;20079;-69
2023/05/07 05:31:17;;;;;;;18.55;11.90;;;;;;;-144.73;100.00;54452.84;5009819;28;20029;-69
2023/05/07 05:33:42;;;;;;;20.60;12.05;;;;;;;-144.73;100.00;54481.59;5009983;28;20029;-70
2023/05/07 05:36:11;;;;;;;17.88;10.80;;;;;;;-144.73;100.00;54415.91;5028040;28;20040;-70
2023/05/07 05:38:37;;;;;;;19.15;11.77;;;;;;;-144.73;100.00;54415.91;5007228;28;20028;-69
2023/05/07 05:41:02;;;;;;;18.85;12.00;;;;;;;-144.73;100.00;54411.81;5026051;28;20033;-69
2023/05/07 05:43:28;;;;;;;17.90;11.48;;;;;;;-144.73;100.00;54485.69;5005582;28;20092;-69
2023/05/07 05:45:53;;;;;;;17.45;10.85;;;;;;;-144.73;100.00;54459.00;5013229;28;20025;-71
2023/05/07 05:48:18;;;;;;;17.10;11.80;;;;;;;-144.73;100.00;54442.59;5013154;28;20108;-71
2023/05/07 05:50:44;;;;;;;21.63;11.68;;;;;;;-144.73;100.00;54461.06;5005883;28;20025;-71
2023/05/07 05:53:09;;;;;;;17.20;10.75;;;;;;;-144.73;100.00;54456.97;5022824;28;20053;-71
2023/05/07 05:55:34;;;;;;;15.30;10.50;;;;;;;-144.73;100.00;54461.06;5028061;28;20021;-71
2023/05/07 05:58:00;;;;;;;16.30;10.13;;;;;;;-144.73;100.00;54461.06;5027055;28;20128;-71
2023/05/07 06:00:26;;;;;;;17.27;10.32;;;;;;;-144.73;100.00;54452.84;5009175;28;20433;-71
2023/05/07 06:02:51;;;;;;;17.10;10.60;;;;;;;-144.73;100.00;54432.31;5022441;28;20033;-70
2023/05/07 06:05:17;;;;;;;20.88;11.40;;;;;;;-144.73;100.00;54465.16;5027661;28;20024;-71
2023/05/07 06:07:42;;;;;;;14.52;9.68;;;;;;;-144.73;100.00;54465.16;5005266;28;20038;-70
2023/05/07 06:10:08;;;;;;;16.60;10.23;;;;;;;-144.73;100.00;54448.75;5012805;28;20117;-70
2023/05/07 06:12:33;;;;;;;16.67;10.07;;;;;;;-144.73;100.00;54485.69;5009080;28;20095;-71
2023/05/07 06:14:58;;;;;;;14.55;10.05;;;;;;;-144.73;100.00;54448.75;5008659;28;20037;-71
2023/05/07 06:17:24;;;;;;;13.07;9.70;;;;;;;-144.73;100.00;54436.44;5011924;28;20037;-71
2023/05/07 06:19:49;;;;;;;19.27;11.52;;;;;;;-144.73;100.00;54477.47;5027203;28;20025;-70
2023/05/07 06:22:15;;;;;;;16.30;10.35;;;;;;;-144.73;100.00;54481.59;5012863;28;20036;-71
2023/05/07 06:24:40;;;;;;;14.32;9.73;;;;;;;-144.73;100.00;54465.16;5009189;28;20025;-71
2023/05/07 06:27:05;;;;;;;15.85;10.13;;;;;;;-144.73;100.00;54473.38;5014342;28;20038;-69
2023/05/07 06:29:33;;;;;;;20.08;9.98;;;;;;;-144.73;100.00;54469.28;5017002;28;20021;-70
2023/05/07 06:32:09;;;;;;;16.50;9.93;;;;;;;-144.73;100.00;54452.84;5017150;28;20113;-69
2023/05/07 06:34:34;;;;;;;11.98;8.73;;;;;;;-144.73;100.00;54452.84;5018238;28;20026;-68
2023/05/07 06:36:59;;;;;;;16.05;9.55;;;;;;;-144.73;100.00;54510.31;5017055;28;20037;-69
2023/05/07 06:39:25;;;;;;;16.55;9.40;;;;;;;-144.73;100.00;54473.38;5018107;28;20041;-68
2023/05/07 06:41:50;;;;;;;16.02;9.75;;;;;;;-144.73;100.00;54469.28;5017526;28;20078;-69
2023/05/07 06:44:16;;;;;;;22.20;9.68;;;;;;;-144.73;100.00;54450.81;5033686;28;20078;-70
2023/05/07 06:46:41;;;;;;;11.88;8.65;;;;;;;-144.73;100.00;54444.66;5016735;28;20068;-69
2023/05/07 06:49:07;;;;;;;18.45;9.15;;;;;;;-144.73;100.00;54448.75;5016737;28;20022;-69
2023/05/07 06:51:32;;;;;;;13.00;8.95;;;;;;;-144.73;100.00;54426.16;5016984;28;20488;-69
2023/05/07 06:53:57;;;;;;;13.32;9.07;;;;;;;-144.73;100.00;54498.00;5016959;28;20116;-69
2023/05/07 06:56:23;;;;;;;15.20;8.40;;;;;;;-144.73;100.00;54452.84;5017190;28;20044;-69
2023/05/07 06:58:48;;;;;;;13.88;8.10;;;;;;;-144.73;100.00;54417.97;5017328;28;20120;-69
2023/05/07 07:01:15;;;;;;;15.75;8.88;;;;;;;-144.73;100.00;54436.44;5016991;28;20112;-69
2023/05/07 07:03:40;;;;;;;13.88;8.63;;;;;;;-144.73;100.00;54448.75;5018214;28;20415;-68
2023/05/07 07:06:05;;;;;;;12.10;8.45;;;;;;;-144.73;100.00;54407.69;5017335;28;20118;-68
2023/05/07 07:08:31;;;;;;;11.88;8.48;;;;;;;-144.73;100.00;54481.59;5017851;28;20022;-69
2023/05/07 07:10:56;;;;;;;15.63;9.20;;;;;;;-144.73;100.00;54428.22;5017221;28;20036;-69
2023/05/07 07:13:21;;;;;;;12.63;8.70;;;;;;;-144.73;100.00;54448.75;5017142;28;20025;-69
2023/05/07 07:15:47;;;;;;;11.82;7.60;;;;;;;-144.73;100.00;54452.84;5017388;28;20029;-70
2023/05/07 07:18:12;;;;;;;11.73;7.18;;;;;;;-144.73;100.00;54456.97;5018189;28;20022;-70
2023/05/07 07:20:38;;;;;;;11.27;8.07;;;;;;;-144.73;100.00;54487.75;5018126;28;20021;-70
2023/05/07 07:23:03;;;;;;;16.27;8.15;;;;;;;-144.73;100.00;54428.22;5017565;28;20041;-70
2023/05/07 07:25:28;;;;;;;15.43;8.43;;;;;;;-144.73;100.00;54469.28;5018525;28;20052;-69
2023/05/07 07:27:54;;;;;;;14.75;8.07;;;;;;;-144.73;100.00;54461.06;5017898;28;20034;-70
2023/05/07 07:30:19;;;;;;;14.52;7.47;;;;;;;-144.73;100.00;54461.06;5018186;28;20059;-69
2023/05/07 07:32:44;;;;;;;11.48;7.60;;;;;;;-144.73;100.00;54459.00;5018168;28;20050;-68
2023/05/07 07:35:10;;;;;;;14.05;7.30;;;;;;;-144.73;100.00;54465.16;5018282;28;20025;-69
2023/05/07 07:37:35;;;;;;;11.02;7.22;;;;;;;-144.73;100.00;54424.13;5018548;28;20045;-69
2023/05/07 07:40:01;;;;;;;9.00;6.88;;;;;;;-144.73;100.00;54489.81;5018749;28;20155;-69
2023/05/07 07:42:26;;;;;;;11.50;7.07;;;;;;;-144.73;100.00;54444.66;5018091;28;20025;-69
2023/05/07 07:44:52;;;;;;;9.85;6.97;;;;;;;-144.73;100.00;54469.28;5018153;28;20029;-69
2023/05/07 07:47:17;;;;;;;11.85;7.43;;;;;;;-144.73;100.00;54469.28;4997870;28;20042;-69
2023/05/07 07:49:43;;;;;;;12.02;6.80;;;;;;;-144.73;100.00;54467.22;5001958;28;20049;-70
2023/05/07 07:52:11;;;;;;;11.07;7.05;;;;;;;-144.73;100.00;54485.69;5001922;28;20038;-69
2023/05/07 07:54:36;;;;;;;11.73;7.65;;;;;;;-144.73;100.00;54432.31;5002303;28;20022;-68
2023/05/07 07:57:02;;;;;;;11.70;8.15;;;;;;;-144.73;100.00;54424.13;5001612;28;20184;-68
2023/05/07 07:59:27;;;;;;;11.15;7.32;;;;;;;-144.73;100.00;54422.06;5001569;28;20022;-69
2023/05/07 08:01:55;;;;;;;10.30;7.32;;;;;;;-144.73;100.00;54489.81;5002116;28;20038;-68
2023/05/07 08:04:21;;;;;;;9.27;7.18;;;;;;;-144.73;100.00;54424.13;5001846;28;20026;-70
2023/05/07 08:06:46;;;;;;;13.15;6.95;;;;;;;-144.73;100.00;54456.97;5001417;28;20030;-69
2023/05/07 08:09:12;;;;;;;11.98;7.18;;;;;;;-144.73;100.00;54481.59;5002021;28;20089;-69
2023/05/07 08:11:38;;;;;;;12.68;7.05;;;;;;;-144.73;100.00;54420.00;5002246;28;20041;-68
2023/05/07 08:14:04;;;;;;;22.42;9.20;;;;;;;-144.73;100.00;54473.38;5001863;28;20032;-69
2023/05/07 08:16:30;;;;;;;12.82;7.53;;;;;;;-144.73;100.00;54452.84;5002576;28;20030;-69
2023/05/07 08:18:55;;;;;;;10.52;7.50;;;;;;;-144.73;100.00;54444.66;5001862;28;20021;-69
2023/05/07 08:21:21;;;;;;;10.43;7.88;;;;;;;-144.73;100.00;54432.31;5001919;28;20089;-69
2023/05/07 08:23:46;;;;;;;10.57;7.18;;;;;;;-144.73;100.00;54477.47;5001951;28;20018;-69
2023/05/07 08:26:11;;;;;;;12.25;7.75;;;;;;;-144.73;100.00;54477.47;5002551;28;20065;-69
2023/05/07 08:28:37;;;;;;;13.05;7.90;;;;;;;-144.73;100.00;54481.59;5002274;28;20038;-68
2023/05/07 08:31:02;;;;;;;15.68;8.18;;;;;;;-144.73;100.00;54444.66;5001985;28;20025;-69
2023/05/07 08:33:27;;;;;;;11.55;7.32;;;;;;;-144.73;100.00;54420.00;5002763;28;20065;-69
2023/05/07 08:35:53;;;;;;;10.23;7.18;;;;;;;-144.73;100.00;54430.28;5003172;28;20089;-67
2023/05/07 08:38:18;;;;;;;16.83;8.55;;;;;;;-144.73;100.00;54424.13;5003056;28;20018;-69
2023/05/07 08:40:44;;;;;;;9.40;6.60;;;;;;;-144.73;100.00;54420.00;5002364;28;20030;-69
2023/05/07 08:43:13;;;;;;;9.75;7.18;;;;;;;-144.73;100.00;54448.75;5001250;28;20036;-69
2023/05/07 08:45:40;;;;;;;11.55;7.45;;;;;;;-144.73;100.00;54456.97;5002066;28;20065;-70
2023/05/07 08:48:13;;;;;;;10.95;7.60;;;;;;;-144.73;100.00;54479.53;5001522;28;20038;-69
2023/05/07 08:50:39;;;;;;;14.30;7.28;;;;;;;-144.73;100.00;54452.84;5002815;28;20053;-69
2023/05/07 08:53:05;;;;;;;14.95;6.15;;;;;;;-144.73;100.00;54432.31;5001875;28;20053;-69
2023/05/07 08:55:31;;;;;;;12.80;6.97;;;;;;;-144.73;100.00;54415.91;5002799;28;20076;-69
2023/05/07 08:57:56;;;;;;;10.25;6.45;;;;;;;-144.73;100.00;54444.66;5001848;28;20038;-68
2023/05/07 09:00:22;;;;;;;8.75;6.30;;;;;;;-144.73;100.00;54428.22;5001735;28;20025;-70
2023/05/07 09:02:47;;;;;;;12.13;6.38;;;;;;;-144.73;100.00;54493.91;5002089;28;20037;-71
2023/05/07 09:05:20;;;;;;;10.88;6.35;;;;;;;-144.73;100.00;54452.84;5003155;28;20334;-70
2023/05/07 09:07:46;;;;;;;14.80;6.32;;;;;;;-144.73;100.00;54473.38;5020499;28;20057;-70
2023/05/07 09:10:13;;;;;;;11.95;7.03;;;;;;;-144.73;100.00;54469.28;5024224;28;20032;-70
2023/05/07 09:12:39;;;;;;;12.10;6.95;;;;;;;-144.73;100.00;54432.31;5023842;28;20029;-69
2023/05/07 09:15:05;;;;;;;10.70;6.55;;;;;;;-144.73;100.00;54456.97;5022820;28;20088;-69
2023/05/07 09:17:31;;;;;;;12.80;6.45;;;;;;;-144.73;100.00;54485.69;5013826;28;20097;-69
2023/05/07 09:20:01;;;;;;;22.55;6.18;;;;;;;-144.73;100.00;54420.00;5007843;28;20106;-69
2023/05/07 09:22:27;;;;;;;12.82;6.15;;;;;;;-144.73;100.00;54436.44;5023071;28;20021;-70
2023/05/07 09:24:52;;;;;;;7.38;5.43;;;;;;;-144.73;100.00;54481.59;5010609;28;20021;-70
2023/05/07 09:27:18;;;;;;;9.60;6.45;;;;;;;-144.73;100.00;54465.16;5015490;28;20040;-70
2023/05/07 09:29:44;;;;;;;9.52;5.55;;;;;;;-144.73;100.00;54399.50;5020111;28;20029;-70
2023/05/07 09:32:10;;;;;;;10.75;6.20;;;;;;;-144.73;100.00;54411.81;5018389;28;20102;-69
2023/05/07 09:34:36;;;;;;;9.35;5.68;;;;;;;-144.73;100.00;54461.06;5011965;28;20022;-70
2023/05/07 09:37:05;;;;;;;9.73;5.60;;;;;;;-144.73;100.00;54487.75;5021759;28;20057;-70
2023/05/07 09:39:51;;;;;;;8.45;5.80;;;;;;;-144.73;100.00;54417.97;5021392;28;20026;-70
2023/05/07 09:42:22;;;;;;;11.18;5.55;;;;;;;-144.73;100.00;54452.84;5020527;28;20086;-70
2023/05/07 09:44:48;;;;;;;10.18;5.55;;;;;;;-144.73;100.00;54465.16;5017691;28;20060;-70
2023/05/07 09:47:19;;;;;;;11.85;5.57;;;;;;;-144.73;100.00;54428.22;5017580;28;20104;-70
2023/05/07 09:49:47;;;;;;;10.57;6.32;;;;;;;-144.73;100.00;54469.28;5013152;28;20752;-69
2023/05/07 09:52:13;;;;;;;6.85;5.03;;;;;;;-144.73;100.00;54481.59;5013582;28;20037;-69
2023/05/07 09:54:41;;;;;;;8.35;5.65;;;;;;;-144.73;100.00;54417.97;5015740;28;20108;-69
2023/05/07 09:57:09;;;;;;;7.68;5.05;;;;;;;-144.73;100.00;54407.69;5012961;28;20029;-70
2023/05/07 09:59:37;;;;;;;7.63;5.00;;;;;;;-144.73;100.00;54452.84;5015600;28;20442;-69
2023/05/07 10:02:03;;;;;;;9.18;5.63;;;;;;;-144.73;100.00;54432.31;5014956;28;20075;-70
2023/05/07 10:04:31;;;;;;;8.10;5.57;;;;;;;-144.73;100.00;54432.31;5015256;28;20033;-70
2023/05/07 10:06:58;;;;;;;12.32;6.07;;;;;;;-144.73;100.00;54432.31;5015574;28;20030;-69
2023/05/07 10:09:25;;;;;;;8.23;5.63;;;;;;;-144.73;100.00;54448.75;5015588;28;20037;-70
2023/05/07 10:11:51;;;;;;;10.35;5.90;;;;;;;-144.73;100.00;54440.53;5013701;28;20037;-69
2023/05/07 10:14:17;;;;;;;9.40;6.30;;;;;;;-144.73;100.00;54498.00;5015712;28;20099;-70
2023/05/07 10:16:43;;;;;;;10.98;5.65;;;;;;;-144.73;100.00;54424.13;5016490;28;20440;-70
2023/05/07 10:19:12;;;;;;;8.85;5.28;;;;;;;-144.73;100.00;54473.38;5016301;28;20025;-70
2023/05/07 10:21:39;;;;;;;9.35;4.88;;;;;;;-144.73;100.00;54432.31;5016473;28;20029;-69
2023/05/07 10:24:19;;;;;;;9.73;4.60;;;;;;;-144.73;100.00;54415.91;5015844;28;20022;-70
2023/05/07 10:26:49;;;;;;;8.07;5.40;;;;;;;-144.73;100.00;54434.38;5015603;28;20108;-69
2023/05/07 10:29:15;;;;;;;8.00;5.10;;;;;;;-144.73;100.00;54428.22;5014073;28;20035;-70
2023/05/07 10:32:00;;;;;;;7.10;5.22;;;;;;;-144.73;100.00;54446.69;5015067;28;20113;-70
2023/05/07 10:34:45;;;;;;;6.65;4.88;;;;;;;-144.73;100.00;54436.44;5013204;28;20029;-68
2023/05/07 10:37:11;;;;;;;8.40;5.50;;;;;;;-144.73;100.00;54452.84;5013401;28;20030;-69
2023/05/07 10:39:37;;;;;;;7.68;4.93;;;;;;;-144.73;100.00;54432.31;5014431;28;20021;-69
2023/05/07 10:42:10;;;;;;;6.95;5.13;;;;;;;-144.73;100.00;54444.66;5009784;28;20180;-70
2023/05/07 10:44:37;;;;;;;9.25;5.70;;;;;;;-144.73;100.00;54461.06;5009568;28;20021;-69
2023/05/07 10:47:13;;;;;;;7.88;5.20;;;;;;;-144.73;100.00;54444.66;5011886;28;20030;-69
2023/05/07 10:49:45;;;;;;;9.15;4.85;;;;;;;-144.73;100.00;54432.31;5011308;28;20021;-69
2023/05/07 10:52:13;;;;;;;10.43;5.80;;;;;;;-144.73;100.00;54424.13;5010036;28;20038;-69